Portada
METAR-TAF:

METAR-TAF

Aeroports :

Aeroport Andorra - la Seu d'Urgell

La Seu d'Urgell, Espanya

latitud: 42-20-29N, longitud: 001-24-17E, altitud: 802 m

Observació

L'informe es va fer fa 23 minuts, a les 10:00 UTC
Vent 2 kt amb direcció variable
Temperatura 0°C
Humitat 100%
Pressió 1012 hPa
Visibilitat: 0050 m
boira gebradora

METAR: LESU 161000Z VRB02KT 0050 R03/0150N FZFG VV001 00/00 Q1012

Hora: 11:23 (10:23 UTC)

Pronòstic

L'informe es va fer fa 17 minuts, a les 10:06 UTC
Pronòstic vàlid del 16 a les 10 UTC al 17 a les 09 UTC
Vent 4 kt amb direcció variable
Visibilitat 10 km o més
Escasses núvols a una alçada de 6000 ft
Probabilitat 30% :
Temporalment
l' 16 a les 10 UTC al 16 a les 12 UTC
Visibilitat: 0100 m
a una alçada de 100 ft
boira

TAF: LESU 161006Z 1610/1709 VRB04KT 9999 FEW060 TX15/1613Z TN00/1610Z PROB30 TEMPO 1610/1612 0100 FG VV001

Observacions i pronòstics meteorològics de més de 4000 aeroports (METAR i TAF).

Les estacions disponibles són els punts grocs i vermells al mapa.

Posi el ratolí al punt desitjat per veure el nom de l'estació.

Feu clic per veure les observacions i els pronòstics meteorològics.

Per canviar el mapa: feu clic els botons verds amb una creu de color negre per apropar; al botó verd amb un guió per allunyar la imatge; o en les fletxes verdes per a mapes adjacents.


METAR-TAF: